createdAt,value
2019-02-24T00:00:07.994Z,2.37
2019-02-24T00:02:37.452Z,2.10
2019-02-24T00:05:06.940Z,1.90
2019-02-24T00:07:36.454Z,2.03
2019-02-24T00:10:06.076Z,2.10
2019-02-24T00:12:35.599Z,2.07
2019-02-24T00:15:05.392Z,2.30
2019-02-24T00:17:34.834Z,2.17
2019-02-24T00:20:04.578Z,1.90
2019-02-24T00:22:34.002Z,2.13
2019-02-24T00:25:03.498Z,2.30
2019-02-24T00:27:32.951Z,2.33
2019-02-24T00:30:02.431Z,2.70
2019-02-24T00:32:31.856Z,3.20
2019-02-24T00:35:01.324Z,2.60
2019-02-24T00:37:30.745Z,2.90
2019-02-24T00:40:00.218Z,3.30
2019-02-24T00:42:29.649Z,3.13
2019-02-24T00:44:59.144Z,3.20
2019-02-24T00:47:28.610Z,3.10
2019-02-24T00:49:58.074Z,2.53
2019-02-24T00:52:27.526Z,3.13
2019-02-24T00:54:56.965Z,2.97
2019-02-24T00:57:26.396Z,3.20
2019-02-24T00:59:55.981Z,3.17
2019-02-24T01:02:25.429Z,2.90
2019-02-24T01:04:54.935Z,2.80
2019-02-24T01:07:24.373Z,2.47
2019-02-24T01:09:53.848Z,3.22
2019-02-24T01:12:23.280Z,2.57
2019-02-24T01:14:52.751Z,3.73
2019-02-24T01:17:22.177Z,3.13
2019-02-24T01:19:51.860Z,3.43
2019-02-24T01:22:21.291Z,3.47
2019-02-24T01:24:50.759Z,3.20
2019-02-24T01:27:20.250Z,3.70
2019-02-24T01:29:49.830Z,2.83
2019-02-24T01:32:19.266Z,3.47
2019-02-24T01:34:48.728Z,3.35
2019-02-24T01:37:18.181Z,2.30
2019-02-24T01:39:47.637Z,3.25
2019-02-24T01:42:17.097Z,3.20
2019-02-24T01:44:46.586Z,3.47
2019-02-24T01:47:16.086Z,3.25
2019-02-24T01:49:46.773Z,3.47
2019-02-24T01:52:16.231Z,3.13
2019-02-24T01:54:45.729Z,2.70
2019-02-24T01:57:15.595Z,2.90
2019-02-24T01:59:45.101Z,2.90
2019-02-24T02:02:14.564Z,3.27
2019-02-24T02:04:44.035Z,3.07
2019-02-24T02:07:13.470Z,2.83
2019-02-24T02:09:42.962Z,3.40
2019-02-24T02:12:12.406Z,3.23
2019-02-24T02:14:41.873Z,3.30
2019-02-24T02:17:11.351Z,3.17
2019-02-24T02:19:40.800Z,2.77
2019-02-24T02:22:10.264Z,3.20
2019-02-24T02:24:39.776Z,2.90
2019-02-24T02:27:09.213Z,2.67
2019-02-24T02:29:38.684Z,2.42
2019-02-24T02:32:08.204Z,2.67
2019-02-24T02:34:37.695Z,2.50
2019-02-24T02:37:07.162Z,3.30
2019-02-24T02:39:36.614Z,2.73
2019-02-24T02:42:06.047Z,3.07
2019-02-24T02:44:35.553Z,2.75
2019-02-24T02:47:04.990Z,2.87
2019-02-24T02:49:34.497Z,2.67
2019-02-24T02:52:03.939Z,2.80
2019-02-24T02:54:33.404Z,3.00
2019-02-24T02:57:02.866Z,2.60
2019-02-24T02:59:32.355Z,2.50
2019-02-24T03:02:01.790Z,2.87
2019-02-24T03:04:31.213Z,2.77
2019-02-24T03:07:06.769Z,2.93
2019-02-24T03:09:36.239Z,2.95
2019-02-24T03:12:05.789Z,3.05
2019-02-24T03:14:35.234Z,2.47
2019-02-24T03:17:04.691Z,2.70
2019-02-24T03:19:34.150Z,2.70
2019-02-24T03:22:03.625Z,3.20
2019-02-24T03:24:33.168Z,2.90
2019-02-24T03:27:02.628Z,3.27
2019-02-24T03:29:32.096Z,3.00
2019-02-24T03:32:01.635Z,3.15
2019-02-24T03:34:31.063Z,2.83
2019-02-24T03:37:00.550Z,2.97
2019-02-24T03:39:30.004Z,2.63
2019-02-24T03:41:59.647Z,3.67
2019-02-24T03:44:29.130Z,3.60
2019-02-24T03:46:58.669Z,3.37
2019-02-24T03:49:28.106Z,3.40
2019-02-24T03:51:57.580Z,3.00
2019-02-24T03:54:27.132Z,3.50
2019-02-24T03:56:56.590Z,3.10
2019-02-24T03:59:26.095Z,2.92
2019-02-24T04:01:55.582Z,3.27
2019-02-24T04:04:25.015Z,3.35
2019-02-24T04:06:54.469Z,3.12
2019-02-24T04:09:23.926Z,3.25
2019-02-24T04:11:53.384Z,3.20
2019-02-24T04:14:22.848Z,3.55
2019-02-24T04:16:52.324Z,3.42
2019-02-24T04:19:21.818Z,2.90
2019-02-24T04:21:51.304Z,2.58
2019-02-24T04:24:20.759Z,3.50
2019-02-24T04:26:50.231Z,3.37
2019-02-24T04:29:24.925Z,3.25
2019-02-24T04:31:50.894Z,3.10
2019-02-24T04:34:20.335Z,3.07
2019-02-24T04:36:49.821Z,3.72
2019-02-24T04:39:19.264Z,3.17
2019-02-24T04:41:48.719Z,2.95
2019-02-24T04:44:18.159Z,2.90
2019-02-24T04:46:47.682Z,3.05
2019-02-24T04:49:17.125Z,3.05
2019-02-24T04:51:46.584Z,3.40
2019-02-24T04:54:16.035Z,3.10
2019-02-24T04:56:45.518Z,2.60
2019-02-24T04:59:14.984Z,3.08
2019-02-24T05:01:44.459Z,2.80
2019-02-24T05:04:13.917Z,2.95
2019-02-24T05:06:43.357Z,3.33
2019-02-24T05:09:12.878Z,3.47
2019-02-24T05:11:43.483Z,10.00
2019-02-24T05:14:12.966Z,11.60
2019-02-24T05:16:42.406Z,11.05
2019-02-24T05:19:11.902Z,5.00
2019-02-24T05:21:41.361Z,3.80
2019-02-24T05:24:10.801Z,3.02
2019-02-24T05:26:40.248Z,3.10
2019-02-24T05:29:09.719Z,4.00
2019-02-24T05:31:39.154Z,3.43
2019-02-24T05:34:10.086Z,3.15
2019-02-24T05:36:39.527Z,2.60
2019-02-24T05:39:09.002Z,2.75
2019-02-24T05:41:38.469Z,3.25
2019-02-24T05:44:07.923Z,2.77
2019-02-24T05:46:37.374Z,3.08
2019-02-24T05:49:06.858Z,2.55
2019-02-24T05:51:36.287Z,3.50
2019-02-24T05:54:05.772Z,3.00
2019-02-24T05:56:35.230Z,2.70
2019-02-24T05:59:04.684Z,3.62
2019-02-24T06:01:34.157Z,3.58
2019-02-24T06:04:03.627Z,2.40
2019-02-24T06:06:33.081Z,3.45
2019-02-24T06:09:02.541Z,3.20
2019-02-24T06:11:31.982Z,2.77
2019-02-24T06:14:01.442Z,3.50
2019-02-24T06:16:30.916Z,2.58
2019-02-24T06:19:00.402Z,2.67
2019-02-24T06:21:29.836Z,3.75
2019-02-24T06:23:59.345Z,3.20
2019-02-24T06:26:30.166Z,3.22
2019-02-24T06:28:59.885Z,2.90
2019-02-24T06:31:29.326Z,3.17
2019-02-24T06:33:58.795Z,3.43
2019-02-24T06:36:28.249Z,3.05
2019-02-24T06:38:57.745Z,3.33
2019-02-24T06:41:27.216Z,3.02
2019-02-24T06:43:56.682Z,2.90
2019-02-24T06:46:26.153Z,3.20
2019-02-24T06:48:57.665Z,3.65
2019-02-24T06:51:27.081Z,3.50
2019-02-24T06:53:56.558Z,3.52
2019-02-24T06:56:25.982Z,2.75
2019-02-24T06:58:55.472Z,2.83
2019-02-24T07:01:24.949Z,3.25
2019-02-24T07:03:54.654Z,3.55
2019-02-24T07:06:24.081Z,3.67
2019-02-24T07:08:53.550Z,3.00
2019-02-24T07:11:23.034Z,3.20
2019-02-24T07:13:52.494Z,4.15
2019-02-24T07:16:21.925Z,3.77
2019-02-24T07:18:51.403Z,3.60
2019-02-24T07:21:20.900Z,4.20
2019-02-24T07:23:50.357Z,3.02
2019-02-24T07:26:19.891Z,3.60
2019-02-24T07:28:49.374Z,2.83
2019-02-24T07:31:18.802Z,2.70
2019-02-24T07:33:48.307Z,3.07
2019-02-24T07:36:17.915Z,3.47
2019-02-24T07:38:48.087Z,3.60
2019-02-24T07:41:17.628Z,4.33
2019-02-24T07:43:47.059Z,3.87
2019-02-24T07:46:16.526Z,3.50
2019-02-24T07:48:45.975Z,3.37
2019-02-24T07:51:15.432Z,3.12
2019-02-24T07:53:44.866Z,3.05
2019-02-24T07:56:14.330Z,3.03
2019-02-24T07:58:44.000Z,3.10
2019-02-24T08:01:13.433Z,3.70
2019-02-24T08:03:42.857Z,3.53
2019-02-24T08:06:12.348Z,3.17
2019-02-24T08:08:41.778Z,3.60
2019-02-24T08:11:11.238Z,3.53
2019-02-24T08:13:40.723Z,3.57
2019-02-24T08:16:10.156Z,3.20
2019-02-24T08:18:39.596Z,3.93
2019-02-24T08:21:09.063Z,3.10
2019-02-24T08:23:38.496Z,3.40
2019-02-24T08:26:07.949Z,3.00
2019-02-24T08:28:37.518Z,3.13
2019-02-24T08:31:07.299Z,2.53
2019-02-24T08:33:36.879Z,3.57
2019-02-24T08:36:06.517Z,3.37
2019-02-24T08:38:36.057Z,3.10
2019-02-24T08:41:05.529Z,3.15
2019-02-24T08:43:34.962Z,3.40
2019-02-24T08:46:04.550Z,3.47
2019-02-24T08:48:34.055Z,2.90
2019-02-24T08:51:03.516Z,3.57
2019-02-24T08:53:33.534Z,3.97
2019-02-24T08:56:03.177Z,5.17
2019-02-24T08:58:32.895Z,3.57
2019-02-24T09:01:02.426Z,3.27
2019-02-24T09:03:32.062Z,3.37
2019-02-24T09:06:01.518Z,3.47
2019-02-24T09:08:31.147Z,3.83
2019-02-24T09:11:00.728Z,3.27
2019-02-24T09:13:30.161Z,3.87
2019-02-24T09:15:59.590Z,3.73
2019-02-24T09:18:29.036Z,3.93
2019-02-24T09:20:58.486Z,3.60
2019-02-24T09:23:27.990Z,3.57
2019-02-24T09:25:57.449Z,4.03
2019-02-24T09:28:26.968Z,3.97
2019-02-24T09:31:00.826Z,3.40
2019-02-24T09:33:27.746Z,3.80
2019-02-24T09:35:57.268Z,3.73
2019-02-24T09:38:26.886Z,3.00
2019-02-24T09:40:57.344Z,3.80
2019-02-24T09:43:27.609Z,3.70
2019-02-24T09:45:57.211Z,3.70
2019-02-24T09:48:26.709Z,3.47
2019-02-24T09:50:56.145Z,3.00
2019-02-24T09:53:25.650Z,4.23
2019-02-24T09:55:55.781Z,3.87
2019-02-24T09:58:25.493Z,3.67
2019-02-24T10:00:54.879Z,4.17
2019-02-24T10:03:24.335Z,3.57
2019-02-24T10:05:53.780Z,3.40
2019-02-24T10:08:23.237Z,3.40
2019-02-24T10:10:52.692Z,3.87
2019-02-24T10:13:22.158Z,3.77
2019-02-24T10:15:51.605Z,4.07
2019-02-24T10:18:21.064Z,2.80
2019-02-24T10:20:50.623Z,3.90
2019-02-24T10:23:20.071Z,3.40
2019-02-24T10:25:49.516Z,3.13
2019-02-24T10:28:18.977Z,3.30
2019-02-24T10:30:48.416Z,2.77
2019-02-24T10:33:17.886Z,3.60
2019-02-24T10:35:47.329Z,3.83
2019-02-24T10:38:16.786Z,2.90
2019-02-24T10:40:46.229Z,3.57
2019-02-24T10:43:15.715Z,3.00
2019-02-24T10:45:45.158Z,4.17
2019-02-24T10:48:16.096Z,3.90
2019-02-24T10:50:45.514Z,3.70
2019-02-24T10:53:15.033Z,3.67
2019-02-24T10:55:44.507Z,3.57
2019-02-24T10:58:13.957Z,3.93
2019-02-24T11:00:43.469Z,3.67
2019-02-24T11:03:13.561Z,4.00
2019-02-24T11:05:43.261Z,3.53
2019-02-24T11:08:12.722Z,4.10
2019-02-24T11:10:43.277Z,3.80
2019-02-24T11:13:12.697Z,4.37
2019-02-24T11:15:42.171Z,3.40
2019-02-24T11:18:11.604Z,3.63
2019-02-24T11:20:41.081Z,3.47
2019-02-24T11:23:10.626Z,3.83
2019-02-24T11:25:40.092Z,3.60
2019-02-24T11:28:09.600Z,3.97
2019-02-24T11:30:39.062Z,3.53
2019-02-24T11:33:08.533Z,3.47
2019-02-24T11:35:38.079Z,3.63
2019-02-24T11:38:07.776Z,3.03
2019-02-24T11:40:37.355Z,3.73
2019-02-24T11:43:06.777Z,3.33
2019-02-24T11:45:36.261Z,3.37
2019-02-24T11:48:05.825Z,3.70
2019-02-24T11:50:35.318Z,3.30
2019-02-24T11:53:04.752Z,3.93
2019-02-24T11:55:34.238Z,2.80
2019-02-24T11:58:03.709Z,3.50
2019-02-24T12:00:33.185Z,3.80
2019-02-24T12:03:02.894Z,2.80
2019-02-24T12:05:32.320Z,3.40
2019-02-24T12:08:01.770Z,2.93
2019-02-24T12:10:31.239Z,2.97
2019-02-24T12:13:00.670Z,3.00
2019-02-24T12:15:30.131Z,3.70
2019-02-24T12:17:59.545Z,2.70
2019-02-24T12:20:29.080Z,3.50
2019-02-24T12:22:58.491Z,3.93
2019-02-24T12:25:27.945Z,3.30
2019-02-24T12:27:57.371Z,3.40
2019-02-24T12:30:26.834Z,3.27
2019-02-24T12:32:56.286Z,3.17
2019-02-24T12:35:25.748Z,2.87
2019-02-24T12:37:55.201Z,3.00
2019-02-24T12:40:24.669Z,3.30
2019-02-24T12:42:54.610Z,3.07
2019-02-24T12:45:24.178Z,3.17
2019-02-24T12:47:53.623Z,3.60
2019-02-24T12:50:23.074Z,3.03
2019-02-24T12:52:52.538Z,3.00
2019-02-24T12:55:22.026Z,3.40
2019-02-24T12:57:51.425Z,3.00
2019-02-24T13:00:22.107Z,3.40
2019-02-24T13:02:51.553Z,2.80
2019-02-24T13:05:21.007Z,3.60
2019-02-24T13:07:50.458Z,3.97
2019-02-24T13:10:19.973Z,3.20
2019-02-24T13:12:49.423Z,2.87
2019-02-24T13:15:18.893Z,3.67
2019-02-24T13:17:48.321Z,3.00
2019-02-24T13:20:17.829Z,3.73
2019-02-24T13:22:47.256Z,3.23
2019-02-24T13:25:17.943Z,3.67
2019-02-24T13:27:47.369Z,3.10
2019-02-24T13:30:17.613Z,3.20
2019-02-24T13:32:47.047Z,3.20
2019-02-24T13:35:16.556Z,2.80
2019-02-24T13:37:45.982Z,2.80
2019-02-24T13:40:15.601Z,3.03
2019-02-24T13:42:45.037Z,2.57
2019-02-24T13:45:15.285Z,3.00
2019-02-24T13:47:44.717Z,2.83
2019-02-24T13:50:14.989Z,2.60
2019-02-24T13:52:44.422Z,3.00
2019-02-24T13:55:14.186Z,3.03
2019-02-24T13:57:43.617Z,3.03
2019-02-24T14:00:15.526Z,2.80
2019-02-24T14:02:44.973Z,2.80
2019-02-24T14:05:14.444Z,2.90
2019-02-24T14:07:43.901Z,2.90
2019-02-24T14:10:13.270Z,2.70
2019-02-24T14:12:42.756Z,2.80
2019-02-24T14:15:12.401Z,2.73
2019-02-24T14:17:41.869Z,2.80
2019-02-24T14:20:12.053Z,2.40
2019-02-24T14:22:43.405Z,2.70
2019-02-24T14:25:13.003Z,3.37
2019-02-24T14:27:42.514Z,3.20
2019-02-24T14:30:13.389Z,2.70
2019-02-24T14:32:44.178Z,3.40
2019-02-24T14:35:14.917Z,3.07
2019-02-24T14:37:44.651Z,3.07
2019-02-24T14:40:14.435Z,3.27
2019-02-24T14:42:44.904Z,3.07
2019-02-24T14:45:15.658Z,3.20
2019-02-24T14:47:45.189Z,2.50
2019-02-24T14:50:14.719Z,2.93
2019-02-24T14:52:44.250Z,2.90
2019-02-24T14:55:15.369Z,2.70
2019-02-24T14:57:44.930Z,2.83
2019-02-24T15:00:15.413Z,2.80
2019-02-24T15:02:44.950Z,2.60
2019-02-24T15:05:16.509Z,3.50
2019-02-24T15:07:46.357Z,3.10
2019-02-24T15:10:16.446Z,3.20
2019-02-24T15:12:46.050Z,2.97
2019-02-24T15:15:17.505Z,3.40
2019-02-24T15:17:47.030Z,3.17
2019-02-24T15:20:18.155Z,2.80
2019-02-24T15:22:47.712Z,3.07
2019-02-24T15:25:17.592Z,3.10
2019-02-24T15:27:47.302Z,3.07
2019-02-24T15:30:19.597Z,2.60
2019-02-24T15:32:51.659Z,3.10
2019-02-24T15:35:20.481Z,3.27
2019-02-24T15:37:51.370Z,3.17
2019-02-24T15:40:21.085Z,2.90
2019-02-24T15:42:50.688Z,2.77
2019-02-24T15:45:20.443Z,3.10
2019-02-24T15:47:49.999Z,3.03
2019-02-24T15:50:20.272Z,3.17
2019-02-24T15:52:50.042Z,2.90
2019-02-24T15:55:19.784Z,3.07
2019-02-24T15:57:49.456Z,3.33
2019-02-24T16:00:19.352Z,3.20
2019-02-24T16:02:49.024Z,2.90
2019-02-24T16:05:18.662Z,3.50
2019-02-24T16:07:48.373Z,3.10
2019-02-24T16:10:18.680Z,3.30
2019-02-24T16:12:48.326Z,3.93
2019-02-24T16:15:17.761Z,3.33
2019-02-24T16:17:47.270Z,3.10
2019-02-24T16:20:19.395Z,3.47
2019-02-24T16:22:48.847Z,2.83
2019-02-24T16:25:18.290Z,3.07
2019-02-24T16:27:47.753Z,3.63
2019-02-24T16:30:17.296Z,3.43
2019-02-24T16:32:46.741Z,2.73
2019-02-24T16:35:16.253Z,2.93
2019-02-24T16:37:45.721Z,3.47
2019-02-24T16:40:18.049Z,4.40
2019-02-24T16:42:48.071Z,3.87
2019-02-24T16:45:18.274Z,3.70
2019-02-24T16:47:48.433Z,3.77
2019-02-24T16:50:18.467Z,3.40
2019-02-24T16:52:48.197Z,3.17
2019-02-24T16:55:17.840Z,3.40
2019-02-24T16:57:47.674Z,4.20
2019-02-24T17:00:19.052Z,3.23
2019-02-24T17:02:48.653Z,3.10
2019-02-24T17:05:18.214Z,3.43
2019-02-24T17:07:49.322Z,3.37
2019-02-24T17:10:19.593Z,4.07
2019-02-24T17:12:49.340Z,4.20
2019-02-24T17:15:18.996Z,3.73
2019-02-24T17:17:48.711Z,3.23
2019-02-24T17:20:18.598Z,4.17
2019-02-24T17:22:48.084Z,4.00
2019-02-24T17:25:17.666Z,4.43
2019-02-24T17:27:47.299Z,3.97
2019-02-24T17:30:17.006Z,4.40
2019-02-24T17:32:46.445Z,4.33
2019-02-24T17:35:15.942Z,3.87
2019-02-24T17:37:45.379Z,4.63
2019-02-24T17:40:14.862Z,4.37
2019-02-24T17:42:44.298Z,4.47
2019-02-24T17:45:13.968Z,4.63
2019-02-24T17:47:43.401Z,4.53
2019-02-24T17:50:13.170Z,4.07
2019-02-24T17:52:42.633Z,4.23
2019-02-24T17:55:13.116Z,4.50
2019-02-24T17:57:42.575Z,3.80
2019-02-24T18:00:18.928Z,3.60
2019-02-24T18:02:48.357Z,4.17
2019-02-24T18:05:17.817Z,4.10
2019-02-24T18:07:47.276Z,3.63
2019-02-24T18:10:16.782Z,4.70
2019-02-24T18:12:46.392Z,4.70
2019-02-24T18:15:15.843Z,3.80
2019-02-24T18:17:45.265Z,4.10
2019-02-24T18:20:15.111Z,4.10
2019-02-24T18:22:44.548Z,5.20
2019-02-24T18:25:14.158Z,3.87
2019-02-24T18:27:43.713Z,4.10
2019-02-24T18:30:18.604Z,3.83
2019-02-24T18:32:48.055Z,3.83
2019-02-24T18:35:17.644Z,4.00
2019-02-24T18:37:47.219Z,3.93
2019-02-24T18:40:17.146Z,3.80
2019-02-24T18:42:46.665Z,4.47
2019-02-24T18:45:16.217Z,4.40
2019-02-24T18:47:45.655Z,3.90
2019-02-24T18:50:15.282Z,4.30
2019-02-24T18:52:44.769Z,4.40
2019-02-24T18:55:14.466Z,5.10
2019-02-24T18:57:43.903Z,5.23
2019-02-24T19:00:14.981Z,4.87
2019-02-24T19:02:44.423Z,4.63
2019-02-24T19:05:14.089Z,5.27
2019-02-24T19:07:43.522Z,4.70
2019-02-24T19:10:14.842Z,4.27
2019-02-24T19:12:44.295Z,4.40
2019-02-24T19:15:15.789Z,4.83
2019-02-24T19:17:45.229Z,4.73
2019-02-24T19:20:16.596Z,4.10
2019-02-24T19:22:46.153Z,4.63
2019-02-24T19:25:15.859Z,4.70
2019-02-24T19:27:45.316Z,5.23
2019-02-24T19:30:15.837Z,4.60
2019-02-24T19:32:45.274Z,4.30
2019-02-24T19:35:15.008Z,4.30
2019-02-24T19:37:44.581Z,4.13
2019-02-24T19:40:15.593Z,4.53
2019-02-24T19:42:45.670Z,4.60
2019-02-24T19:45:16.438Z,4.60
2019-02-24T19:47:45.979Z,4.00
2019-02-24T19:50:16.488Z,5.40
2019-02-24T19:52:45.942Z,5.10
2019-02-24T19:55:15.565Z,5.23
2019-02-24T19:57:45.016Z,4.70
2019-02-24T20:00:18.025Z,5.03
2019-02-24T20:02:47.727Z,4.83
2019-02-24T20:05:17.473Z,5.10
2019-02-24T20:07:47.027Z,5.00
2019-02-24T20:10:18.343Z,5.10
2019-02-24T20:12:47.804Z,4.30
2019-02-24T20:15:17.591Z,5.00
2019-02-24T20:17:47.142Z,5.60
2019-02-24T20:20:17.030Z,6.80
2019-02-24T20:22:46.456Z,5.17
2019-02-24T20:25:15.901Z,5.73
2019-02-24T20:27:45.359Z,6.17
2019-02-24T20:30:20.301Z,5.50
2019-02-24T20:32:50.822Z,6.27
2019-02-24T20:35:20.269Z,5.63
2019-02-24T20:37:49.743Z,5.00
2019-02-24T20:40:20.319Z,4.40
2019-02-24T20:42:49.949Z,4.43
2019-02-24T20:45:19.857Z,4.93
2019-02-24T20:47:49.538Z,5.53
2019-02-24T20:50:19.726Z,5.70
2019-02-24T20:52:49.212Z,5.00
2019-02-24T20:55:18.675Z,5.70
2019-02-24T20:57:48.201Z,4.50
2019-02-24T21:00:20.607Z,4.90
2019-02-24T21:02:50.062Z,4.43
2019-02-24T21:05:19.497Z,4.70
2019-02-24T21:07:48.951Z,5.00
2019-02-24T21:10:18.554Z,4.10
2019-02-24T21:12:48.004Z,4.33
2019-02-24T21:15:17.598Z,4.73
2019-02-24T21:17:47.051Z,5.20
2019-02-24T21:20:18.498Z,4.40
2019-02-24T21:22:48.030Z,5.33
2019-02-24T21:25:17.473Z,5.60
2019-02-24T21:27:46.933Z,4.97
2019-02-24T21:30:17.149Z,6.23
2019-02-24T21:32:46.609Z,5.00
2019-02-24T21:35:17.319Z,5.23
2019-02-24T21:37:47.039Z,4.87
2019-02-24T21:40:16.581Z,4.60
2019-02-24T21:42:46.263Z,5.00
2019-02-24T21:45:17.634Z,5.30
2019-02-24T21:47:47.094Z,5.30
2019-02-24T21:50:17.011Z,6.33
2019-02-24T21:52:46.449Z,7.37
2019-02-24T21:55:16.139Z,5.50
2019-02-24T21:57:45.626Z,5.40
2019-02-24T22:00:16.721Z,5.77
2019-02-24T22:02:46.210Z,6.20
2019-02-24T22:05:15.737Z,5.87
2019-02-24T22:07:45.400Z,5.30
2019-02-24T22:10:15.157Z,4.93
2019-02-24T22:12:44.613Z,5.27
2019-02-24T22:15:16.425Z,5.60
2019-02-24T22:17:45.902Z,5.50
2019-02-24T22:20:16.677Z,5.83
2019-02-24T22:22:46.164Z,6.17
2019-02-24T22:25:16.020Z,5.60
2019-02-24T22:27:45.520Z,5.83
2019-02-24T22:30:16.291Z,5.83
2019-02-24T22:32:45.813Z,6.13
2019-02-24T22:35:15.400Z,5.60
2019-02-24T22:37:44.841Z,5.10
2019-02-24T22:40:16.605Z,5.67
2019-02-24T22:42:45.549Z,5.57
2019-02-24T22:45:16.991Z,6.27
2019-02-24T22:47:46.765Z,6.30
2019-02-24T22:50:16.831Z,6.10
2019-02-24T22:52:46.592Z,5.93
2019-02-24T22:55:16.345Z,6.57
2019-02-24T22:57:45.847Z,6.07
2019-02-24T23:01:06.033Z,7.07
2019-02-24T23:03:37.894Z,6.23
2019-02-24T23:06:07.350Z,6.47
2019-02-24T23:08:36.807Z,6.70
2019-02-24T23:11:06.245Z,6.47
2019-02-24T23:13:35.834Z,6.10
2019-02-24T23:16:05.311Z,6.17
2019-02-24T23:18:34.983Z,6.13
2019-02-24T23:21:04.430Z,6.53
2019-02-24T23:23:33.882Z,7.23
2019-02-24T23:26:03.326Z,7.33
2019-02-24T23:28:32.790Z,6.50
2019-02-24T23:31:02.246Z,5.60
2019-02-24T23:33:31.708Z,5.60
2019-02-24T23:36:01.144Z,6.00
2019-02-24T23:38:30.665Z,6.50
2019-02-24T23:41:00.095Z,6.30
2019-02-24T23:43:30.712Z,6.43
2019-02-24T23:46:00.592Z,7.00
2019-02-24T23:48:30.086Z,7.27
2019-02-24T23:50:59.547Z,5.73
2019-02-24T23:53:28.996Z,6.70
2019-02-24T23:55:58.436Z,6.40
2019-02-24T23:58:27.936Z,6.47
